Time;durP1;ratioP1;P1;durP2;ratioP2;P2;SDS_P1;SDS_P2;PMS_P1;PMS_P2;Temp;Humidity;BMP_temperature;BMP_pressure;BME280_temperature;BME280_humidity;BME280_pressure;Samples;Min_cycle;Max_cycle;Signal;HPM_P1;HPM_P2
2022/01/21 00:00:50;;;;;;;5.35;1.30;;;24.50;62.30;;;;;;4154278;28;20049;-61
2022/01/21 00:03:12;;;;;;;7.70;1.48;;;24.50;62.30;;;;;;4158602;28;20040;-60
2022/01/21 00:05:35;;;;;;;6.68;1.58;;;24.50;62.50;;;;;;4156877;28;20049;-61
2022/01/21 00:07:58;;;;;;;8.23;1.17;;;24.50;62.80;;;;;;4151533;28;20114;-63
2022/01/21 00:10:20;;;;;;;4.85;1.20;;;24.50;63.50;;;;;;4160015;28;20465;-59
2022/01/21 00:12:43;;;;;;;6.25;1.40;;;24.50;63.00;;;;;;4172051;28;20044;-59
2022/01/21 00:15:10;;;;;;;4.72;1.50;;;24.60;63.20;;;;;;4165932;28;20430;-60
2022/01/21 00:17:33;;;;;;;9.23;1.42;;;24.60;63.10;;;;;;4156837;28;20033;-61
2022/01/21 00:30:08;;;;;;;5.05;1.58;;;24.60;63.10;;;;;;4156930;28;20442;-60
2022/01/21 00:30:40;;;;;;;4.72;1.40;;;24.60;63.20;;;;;;4155582;28;20041;-60
2022/01/21 00:33:03;;;;;;;6.25;1.25;;;24.70;63.10;;;;;;4160466;28;20044;-60
2022/01/21 00:35:27;;;;;;;4.03;1.13;;;24.70;63.10;;;;;;4169255;28;20083;-56
2022/01/21 00:37:51;;;;;;;3.55;1.42;;;24.70;63.00;;;;;;4161601;28;20099;-52
2022/01/21 00:40:19;;;;;;;5.57;1.77;;;24.70;63.40;;;;;;4155458;28;20057;-60
2022/01/21 00:45:11;;;;;;;5.32;1.30;;;24.80;63.00;;;;;;4159285;28;20124;-58
2022/01/21 00:47:33;;;;;;;3.42;1.23;;;24.80;62.90;;;;;;4145026;28;20030;-56
2022/01/21 00:49:57;;;;;;;3.53;1.23;;;24.80;63.00;;;;;;4153241;28;20485;-56
2022/01/21 00:52:19;;;;;;;3.90;1.00;;;24.90;63.20;;;;;;4154674;28;20833;-54
2022/01/21 00:54:42;;;;;;;4.15;1.35;;;24.90;63.10;;;;;;4153751;28;20048;-54
2022/01/21 00:57:05;;;;;;;3.22;1.15;;;24.90;62.90;;;;;;4153925;28;20049;-59
2022/01/21 00:59:28;;;;;;;5.10;1.57;;;24.90;62.20;;;;;;4160074;28;20069;-58
2022/01/21 01:01:50;;;;;;;2.65;1.27;;;24.90;62.20;;;;;;4157229;28;20064;-56
2022/01/21 01:04:13;;;;;;;3.90;1.30;;;24.90;62.00;;;;;;4155461;28;20053;-54
2022/01/21 01:06:36;;;;;;;7.38;0.90;;;25.00;62.00;;;;;;4155643;28;20120;-58
2022/01/21 01:08:58;;;;;;;5.03;1.40;;;25.00;63.70;;;;;;4155584;28;20044;-57
2022/01/21 01:21:56;;;;;;;3.45;1.40;;;25.30;64.10;;;;;;4153172;28;20048;-58
2022/01/21 01:29:40;;;;;;;6.57;1.40;;;25.40;63.70;;;;;;4151837;28;20061;-58
2022/01/21 01:32:03;;;;;;;6.65;1.55;;;25.30;63.50;;;;;;4157638;28;20192;-55
2022/01/21 01:34:26;;;;;;;3.85;0.85;;;25.40;63.40;;;;;;4151647;28;20122;-58
2022/01/21 01:36:48;;;;;;;7.35;1.15;;;25.40;63.30;;;;;;4156560;28;20080;-59
2022/01/21 01:39:18;;;;;;;3.67;1.23;;;25.40;63.20;;;;;;4154070;28;20041;-58
2022/01/21 01:41:56;;;;;;;4.15;1.33;;;25.40;63.10;;;;;;4154769;28;20037;-58
2022/01/21 01:49:40;;;;;;;4.13;1.50;;;25.40;63.40;;;;;;4159580;28;20087;-58
2022/01/21 01:52:09;;;;;;;5.15;1.85;;;25.50;63.50;;;;;;4163281;28;20053;-59
2022/01/21 01:54:33;;;;;;;5.05;1.77;;;25.50;63.20;;;;;;4160397;28;20047;-61
2022/01/21 01:56:57;;;;;;;5.38;1.83;;;25.60;63.20;;;;;;4172184;28;20120;-57
2022/01/21 01:59:20;;;;;;;8.82;2.13;;;25.60;63.00;;;;;;4174608;28;20873;-52
2022/01/21 02:01:43;;;;;;;12.05;2.67;;;25.60;63.10;;;;;;4162731;28;20132;-54
2022/01/21 02:04:06;;;;;;;5.13;2.35;;;25.70;63.40;;;;;;4153996;28;20132;-49
2022/01/21 02:06:29;;;;;;;6.18;2.00;;;25.70;63.70;;;;;;4158892;28;20029;-53
2022/01/21 02:08:51;;;;;;;5.50;1.90;;;25.70;63.60;;;;;;4162375;28;20045;-52
2022/01/21 02:11:14;;;;;;;7.05;2.35;;;25.80;63.40;;;;;;4162878;28;20041;-50
2022/01/21 02:13:45;;;;;;;8.85;2.72;;;25.80;62.80;;;;;;4155304;28;20107;-49
2022/01/21 02:21:37;;;;;;;6.15;2.00;;;25.90;62.20;;;;;;4155403;28;20129;-55
2022/01/21 02:24:03;;;;;;;4.32;1.73;;;26.00;62.00;;;;;;4167213;28;20034;-57
2022/01/21 02:26:26;;;;;;;6.90;1.83;;;26.10;62.00;;;;;;4172049;28;20045;-56
2022/01/21 02:28:49;;;;;;;4.17;1.67;;;26.10;61.90;;;;;;4167243;28;20106;-53
2022/01/21 02:31:12;;;;;;;6.13;2.00;;;26.20;62.10;;;;;;4159264;28;20057;-51
2022/01/21 02:33:34;;;;;;;5.70;2.10;;;26.20;62.10;;;;;;4156059;28;20511;-50
2022/01/21 02:35:57;;;;;;;5.25;1.40;;;26.30;62.30;;;;;;4158482;28;20050;-52
2022/01/21 02:38:20;;;;;;;5.63;2.00;;;26.30;62.20;;;;;;4161015;28;20417;-49
2022/01/21 02:40:43;;;;;;;4.82;1.80;;;26.40;62.40;;;;;;4165997;28;20031;-50
2022/01/21 02:43:06;;;;;;;6.97;2.00;;;26.40;62.30;;;;;;4161111;28;20051;-51
2022/01/21 02:45:28;;;;;;;6.15;2.03;;;26.40;61.70;;;;;;4163040;28;20028;-50
2022/01/21 02:47:51;;;;;;;7.78;2.00;;;26.50;62.10;;;;;;4166063;28;20041;-57
2022/01/21 02:50:16;;;;;;;8.57;2.15;;;26.50;61.90;;;;;;4161064;28;20604;-51
2022/01/21 02:52:54;;;;;;;5.88;2.10;;;26.50;61.80;;;;;;4156850;28;20139;-54
2022/01/21 02:55:16;;;;;;;6.38;2.03;;;26.50;61.80;;;;;;4160058;28;20041;-56
2022/01/21 02:57:39;;;;;;;4.18;1.40;;;26.60;62.10;;;;;;4167372;28;20029;-49
2022/01/21 03:00:03;;;;;;;3.70;1.45;;;26.60;61.60;;;;;;4164806;28;20134;-58
2022/01/21 03:02:25;;;;;;;6.03;1.85;;;26.60;61.50;;;;;;4162852;28;20029;-58
2022/01/21 03:05:21;;;;;;;7.45;1.98;;;26.70;61.40;;;;;;4161092;28;20492;-59
2022/01/21 03:07:37;;;;;;;8.02;1.73;;;26.70;61.10;;;;;;4156131;28;20036;-58
2022/01/21 03:09:59;;;;;;;6.70;1.97;;;26.70;61.10;;;;;;4156133;28;20466;-59
2022/01/21 03:12:22;;;;;;;6.43;1.67;;;26.70;61.00;;;;;;4160524;28;20037;-59
2022/01/21 03:14:45;;;;;;;5.70;1.90;;;26.70;60.70;;;;;;4159662;28;20045;-55
2022/01/21 03:17:07;;;;;;;6.72;1.80;;;26.70;60.50;;;;;;4156656;28;20041;-53
2022/01/21 03:19:30;;;;;;;6.45;1.25;;;26.80;60.70;;;;;;4161210;28;20043;-51
2022/01/21 03:21:52;;;;;;;5.72;1.67;;;26.80;60.40;;;;;;4158092;28;20033;-49
2022/01/21 03:24:15;;;;;;;4.85;1.63;;;26.80;60.20;;;;;;4157660;28;20033;-57
2022/01/21 03:26:38;;;;;;;4.72;1.40;;;26.80;60.20;;;;;;4154124;28;20053;-57
2022/01/21 03:29:03;;;;;;;5.78;1.55;;;26.80;59.80;;;;;;4154865;28;20283;-55
2022/01/21 03:31:26;;;;;;;5.03;1.40;;;26.80;60.00;;;;;;4156907;28;20119;-50
2022/01/21 03:33:49;;;;;;;5.00;1.13;;;26.80;60.00;;;;;;4157616;28;20152;-51
2022/01/21 03:36:13;;;;;;;7.18;1.60;;;26.80;59.60;;;;;;4154166;28;20042;-57
2022/01/21 03:38:36;;;;;;;;;;;26.80;59.80;;;;;;4151070;28;20041;-57
2022/01/21 03:40:59;;;;;;;5.60;1.60;;;26.80;59.40;;;;;;4154247;28;19944;-56
2022/01/21 03:43:22;;;;;;;4.55;1.50;;;26.80;59.90;;;;;;4157447;28;20503;-54
2022/01/21 03:45:45;;;;;;;3.97;1.65;;;26.80;59.90;;;;;;4154209;28;20311;-56
2022/01/21 03:48:08;;;;;;;5.63;1.20;;;26.90;59.80;;;;;;4154339;28;20129;-48
2022/01/21 03:50:32;;;;;;;4.32;1.48;;;26.90;59.80;;;;;;4162395;28;20029;-48
2022/01/21 03:52:55;;;;;;;5.35;1.23;;;26.90;59.80;;;;;;4151866;28;20111;-55
2022/01/21 03:55:17;;;;;;;4.95;1.35;;;26.90;60.20;;;;;;4153374;28;20045;-49
2022/01/21 03:57:41;;;;;;;7.53;1.70;;;26.90;60.30;;;;;;4160753;28;20033;-53
2022/01/21 04:00:09;;;;;;;1.65;1.05;;;26.90;60.20;;;;;;4155266;28;20053;-56
2022/01/21 04:02:31;;;;;;;4.25;1.30;;;26.90;60.60;;;;;;4163309;28;20103;-52
2022/01/21 04:04:54;;;;;;;4.05;1.25;;;27.00;60.60;;;;;;4148298;28;20154;-56
2022/01/21 04:07:16;;;;;;;3.05;1.30;;;27.00;60.50;;;;;;4146873;28;20140;-54
2022/01/21 04:09:39;;;;;;;6.07;1.40;;;27.00;60.40;;;;;;4154390;28;20061;-54
2022/01/21 04:12:02;;;;;;;2.75;0.88;;;27.10;60.10;;;;;;4151948;28;20192;-50
2022/01/21 04:14:24;;;;;;;4.18;1.35;;;27.10;59.70;;;;;;4157992;28;20510;-52
2022/01/21 04:16:47;;;;;;;3.90;1.40;;;27.10;59.80;;;;;;4155116;28;20037;-53
2022/01/21 04:19:10;;;;;;;2.50;1.17;;;27.10;59.70;;;;;;4156599;28;20051;-53
2022/01/21 04:21:32;;;;;;;3.60;1.40;;;27.10;59.70;;;;;;4157405;28;20103;-53
2022/01/21 04:23:55;;;;;;;2.40;0.95;;;27.10;60.00;;;;;;4155456;28;20453;-51
2022/01/21 04:26:17;;;;;;;3.60;1.02;;;27.10;59.90;;;;;;4156110;28;20540;-52
2022/01/21 04:28:40;;;;;;;2.85;1.10;;;27.10;59.90;;;;;;4160446;28;20046;-51
2022/01/21 04:31:02;;;;;;;5.60;1.48;;;27.10;60.00;;;;;;4156547;28;20052;-53
2022/01/21 04:33:25;;;;;;;3.58;1.00;;;27.10;60.30;;;;;;4154209;28;20143;-51
2022/01/21 04:35:48;;;;;;;2.42;1.20;;;27.20;60.20;;;;;;4153826;28;20052;-57
2022/01/21 04:38:13;;;;;;;5.38;1.52;;;27.10;59.60;;;;;;4155080;28;20204;-51
2022/01/21 04:40:45;;;;;;;1.58;0.77;;;27.10;59.70;;;;;;4153941;28;20049;-48
2022/01/21 04:48:30;;;;;;;2.53;0.82;;;27.10;59.90;;;;;;4152466;28;20041;-54
2022/01/21 04:50:56;;;;;;;3.85;1.10;;;27.20;60.00;;;;;;4145203;28;20076;-54
2022/01/21 04:53:19;;;;;;;5.57;1.20;;;27.20;59.80;;;;;;4153964;28;20639;-56
2022/01/21 04:55:42;;;;;;;3.08;0.82;;;27.20;59.80;;;;;;4160311;28;20041;-54
2022/01/21 04:58:05;;;;;;;2.42;1.00;;;27.20;59.80;;;;;;4153556;28;20503;-58
2022/01/21 05:00:28;;;;;;;2.97;1.07;;;27.20;59.80;;;;;;4154446;28;20045;-56
2022/01/21 05:02:50;;;;;;;2.92;1.20;;;27.10;59.70;;;;;;4156284;28;20168;-57
2022/01/21 05:05:13;;;;;;;2.63;1.00;;;27.20;60.00;;;;;;4158938;28;20041;-56
2022/01/21 05:07:39;;;;;;;3.13;1.30;;;27.10;60.00;;;;;;4166905;28;20498;-53
2022/01/21 05:10:03;;;;;;;2.22;0.98;;;27.10;59.90;;;;;;4154056;28;20037;-56
2022/01/21 05:12:27;;;;;;;3.70;0.95;;;27.10;60.00;;;;;;4154810;28;20503;-51
2022/01/21 05:17:29;;;;;;;4.10;1.30;;;27.10;60.00;;;;;;4151576;28;20042;-55
2022/01/21 05:19:52;;;;;;;5.28;1.30;;;27.20;60.10;;;;;;4155850;28;20056;-49
2022/01/21 05:22:15;;;;;;;5.20;1.00;;;27.20;60.00;;;;;;4158977;28;20037;-59
2022/01/21 05:24:38;;;;;;;3.28;1.17;;;27.20;60.00;;;;;;4166448;28;20514;-58
2022/01/21 05:27:01;;;;;;;3.25;0.93;;;27.20;60.00;;;;;;4159233;28;20041;-57
2022/01/21 05:29:29;;;;;;;3.97;1.08;;;27.20;60.10;;;;;;4157972;28;20038;-55
2022/01/21 05:31:53;;;;;;;3.45;1.05;;;27.20;60.30;;;;;;4158146;28;20489;-54
2022/01/21 05:34:15;;;;;;;1.90;0.68;;;27.20;60.50;;;;;;4157854;28;20076;-53
2022/01/21 05:36:40;;;;;;;3.83;0.82;;;27.20;60.60;;;;;;4150332;28;20064;-54
2022/01/21 05:39:04;;;;;;;2.72;0.77;;;27.20;60.50;;;;;;4159232;28;20033;-56
2022/01/21 05:41:26;;;;;;;5.40;0.88;;;27.20;60.50;;;;;;4152031;28;20155;-54
2022/01/21 05:43:57;;;;;;;5.78;1.20;;;27.20;60.50;;;;;;4158027;28;20093;-55
2022/01/21 05:49:00;;;;;;;2.25;0.93;;;27.30;60.50;;;;;;4165701;28;20060;-56
2022/01/21 05:51:23;;;;;;;3.53;1.00;;;27.20;60.40;;;;;;4164836;28;20749;-55
2022/01/21 05:53:46;;;;;;;6.00;1.33;;;27.20;60.50;;;;;;4156296;28;20498;-58
2022/01/21 05:56:09;;;;;;;1.63;0.80;;;27.30;60.70;;;;;;4157091;28;20041;-57
2022/01/21 05:58:31;;;;;;;2.05;0.75;;;27.30;60.60;;;;;;4157345;28;20433;-57
2022/01/21 06:00:54;;;;;;;4.97;0.88;;;27.30;60.50;;;;;;4165236;28;20140;-56
2022/01/21 06:03:17;;;;;;;3.87;1.40;;;27.30;60.20;;;;;;4167609;28;20076;-53
2022/01/21 06:05:40;;;;;;;4.25;1.40;;;27.20;60.30;;;;;;4162176;28;20167;-53
2022/01/21 06:08:04;;;;;;;2.93;0.90;;;27.20;61.10;;;;;;4161870;28;20420;-58
2022/01/21 06:10:28;;;;;;;5.30;1.75;;;27.20;60.20;;;;;;4165535;28;20069;-57
2022/01/21 06:12:50;;;;;;;4.72;1.63;;;27.20;59.70;;;;;;4160891;28;20506;-59
2022/01/21 06:15:13;;;;;;;3.08;1.15;;;27.20;59.70;;;;;;4162682;28;20049;-57
2022/01/21 06:17:36;;;;;;;5.43;1.63;;;27.10;59.10;;;;;;4169685;28;20094;-58
2022/01/21 06:19:59;;;;;;;5.00;1.55;;;27.10;59.10;;;;;;4167466;28;20056;-58
2022/01/21 06:22:21;;;;;;;3.53;1.50;;;27.00;59.10;;;;;;4159700;28;20824;-59
2022/01/21 06:24:45;;;;;;;3.30;1.40;;;27.00;59.00;;;;;;4166150;28;20763;-57
2022/01/21 06:27:08;;;;;;;4.50;1.35;;;27.00;59.10;;;;;;4165103;28;20032;-58
2022/01/21 06:29:31;;;;;;;7.00;1.75;;;27.00;59.40;;;;;;4158309;28;20191;-59
2022/01/21 06:31:54;;;;;;;4.57;1.35;;;26.90;59.10;;;;;;4155644;28;20041;-57
2022/01/21 06:34:17;;;;;;;6.80;1.80;;;26.90;59.10;;;;;;4163289;28;20557;-54
2022/01/21 06:36:40;;;;;;;5.65;1.63;;;26.90;59.60;;;;;;4149118;28;20037;-57
2022/01/21 06:39:02;;;;;;;5.57;1.50;;;26.90;59.90;;;;;;4160102;28;20048;-59
2022/01/21 06:41:25;;;;;;;4.95;1.42;;;26.90;60.10;;;;;;4164799;28;20040;-59
2022/01/21 06:43:48;;;;;;;4.07;1.20;;;26.90;60.30;;;;;;4163678;28;20036;-59
2022/01/21 06:46:12;;;;;;;3.90;1.07;;;26.90;60.60;;;;;;4155748;28;20037;-59
2022/01/21 06:48:34;;;;;;;;;;;26.90;60.70;;;;;;4159440;28;20291;-54
2022/01/21 06:50:57;;;;;;;4.43;1.20;;;26.90;60.90;;;;;;4155568;28;20007;-58
2022/01/21 06:53:19;;;;;;;3.72;1.15;;;26.90;61.00;;;;;;4166367;28;20040;-54
2022/01/21 06:55:42;;;;;;;6.40;1.20;;;26.90;61.00;;;;;;4167727;28;20077;-58
2022/01/21 06:58:06;;;;;;;3.53;1.05;;;26.90;60.80;;;;;;4163865;28;20060;-59
2022/01/21 07:00:28;;;;;;;3.03;1.10;;;26.90;60.90;;;;;;4170955;28;20588;-59
2022/01/21 07:02:53;;;;;;;5.13;1.70;;;26.90;61.10;;;;;;4164610;28;20092;-59
2022/01/21 07:05:16;;;;;;;5.47;1.50;;;26.80;61.10;;;;;;4161204;28;20041;-58
2022/01/21 07:07:40;;;;;;;4.85;1.40;;;26.90;61.20;;;;;;4158663;28;20052;-58
2022/01/21 07:10:05;;;;;;;4.78;1.40;;;26.80;61.20;;;;;;4160867;28;20036;-58
2022/01/21 07:12:29;;;;;;;2.28;1.05;;;26.80;61.30;;;;;;4172879;28;20095;-59
2022/01/21 07:14:51;;;;;;;4.32;1.48;;;26.70;61.30;;;;;;4164659;28;20033;-59
2022/01/21 07:17:14;;;;;;;5.75;1.58;;;26.70;61.50;;;;;;4163016;28;20064;-59
2022/01/21 07:19:37;;;;;;;3.85;1.80;;;26.70;61.50;;;;;;4161470;28;20111;-58
2022/01/21 07:22:00;;;;;;;5.07;1.83;;;26.70;61.60;;;;;;4163329;28;20512;-57
2022/01/21 07:24:23;;;;;;;5.68;1.70;;;26.70;61.60;;;;;;4162457;28;20068;-58
2022/01/21 07:26:46;;;;;;;5.43;1.77;;;26.60;61.60;;;;;;4154804;28;20632;-59
2022/01/21 07:29:08;;;;;;;5.43;1.63;;;26.70;61.90;;;;;;4151534;28;20042;-58
2022/01/21 07:31:31;;;;;;;5.22;1.48;;;26.70;61.90;;;;;;4152271;28;20048;-59
2022/01/21 07:33:54;;;;;;;4.90;1.42;;;26.60;61.80;;;;;;4158678;28;20049;-58
2022/01/21 07:36:17;;;;;;;6.13;1.80;;;26.60;61.80;;;;;;4154204;28;20945;-59
2022/01/21 07:38:41;;;;;;;5.55;1.80;;;26.60;62.00;;;;;;4158137;28;20039;-58
2022/01/21 07:41:03;;;;;;;5.70;1.75;;;26.60;62.10;;;;;;4165060;28;20140;-58
2022/01/21 07:43:27;;;;;;;6.70;1.77;;;26.60;62.10;;;;;;4164976;28;20040;-50
2022/01/21 07:45:49;;;;;;;9.40;1.63;;;26.50;62.40;;;;;;4138657;28;20091;-57
2022/01/21 07:48:12;;;;;;;3.22;1.13;;;26.50;62.60;;;;;;4159183;28;20826;-56
2022/01/21 07:50:36;;;;;;;5.30;1.73;;;26.60;62.90;;;;;;4156229;28;20095;-58
2022/01/21 07:52:59;;;;;;;8.48;1.70;;;26.60;62.90;;;;;;4157591;28;20841;-58
2022/01/21 07:55:22;;;;;;;5.68;2.35;;;26.60;62.80;;;;;;4160657;28;20053;-57
2022/01/21 07:57:44;;;;;;;9.38;1.50;;;26.60;62.90;;;;;;4156070;28;20033;-59
2022/01/21 08:00:08;;;;;;;2.97;1.05;;;26.60;63.10;;;;;;4154672;28;20135;-57
2022/01/21 08:02:31;;;;;;;;;;;26.60;63.20;;;;;;4153891;28;20132;-58
2022/01/21 08:04:55;;;;;;;5.00;1.30;;;26.60;63.20;;;;;;4154964;28;19917;-58
2022/01/21 08:07:18;;;;;;;7.78;2.00;;;26.60;63.50;;;;;;4157176;28;20143;-65
2022/01/21 08:09:41;;;;;;;4.00;1.05;;;26.60;63.60;;;;;;4152668;28;20045;-59
2022/01/21 08:12:04;;;;;;;7.97;1.50;;;26.60;63.60;;;;;;4154248;28;20383;-58
2022/01/21 08:14:26;;;;;;;6.78;1.55;;;26.60;63.70;;;;;;4150259;28;20057;-61
2022/01/21 08:16:54;;;;;;;11.00;1.73;;;26.60;63.70;;;;;;4153869;28;20120;-59
2022/01/21 08:19:20;;;;;;;7.95;1.65;;;26.60;63.80;;;;;;4156077;28;20041;-59
2022/01/21 08:21:43;;;;;;;14.07;2.55;;;26.60;63.70;;;;;;4152616;28;20038;-55
2022/01/21 08:24:07;;;;;;;10.40;1.77;;;26.60;64.00;;;;;;4154358;28;20189;-58
2022/01/21 08:26:31;;;;;;;10.82;2.35;;;26.60;64.00;;;;;;4153690;28;20065;-57
2022/01/21 08:28:56;;;;;;;8.70;1.73;;;26.60;64.00;;;;;;4153462;28;20099;-58
2022/01/21 08:31:19;;;;;;;11.65;1.88;;;26.60;63.90;;;;;;4150009;28;21433;-58
2022/01/21 08:33:41;;;;;;;7.90;1.83;;;26.60;63.90;;;;;;4150781;28;20053;-59
2022/01/21 08:36:07;;;;;;;8.48;1.65;;;26.60;63.80;;;;;;4157533;28;20091;-58
2022/01/21 08:38:30;;;;;;;6.95;1.65;;;26.60;63.80;;;;;;4157003;28;20036;-57
2022/01/21 08:40:52;;;;;;;4.68;1.90;;;26.60;63.90;;;;;;4155454;28;20148;-57
2022/01/21 08:43:15;;;;;;;4.95;1.40;;;26.60;63.90;;;;;;4154504;28;20033;-56
2022/01/21 08:45:37;;;;;;;6.90;2.17;;;26.60;63.90;;;;;;4159595;28;20045;-57
2022/01/21 08:48:00;;;;;;;3.22;1.25;;;26.60;63.90;;;;;;4156282;28;20072;-58
2022/01/21 08:50:23;;;;;;;4.18;1.35;;;26.60;63.90;;;;;;4155201;28;20617;-57
2022/01/21 08:52:47;;;;;;;4.40;1.40;;;26.60;64.00;;;;;;4159736;28;21406;-58
2022/01/21 08:55:13;;;;;;;5.63;1.17;;;26.60;64.00;;;;;;4153989;28;20067;-60
2022/01/21 08:57:39;;;;;;;5.35;1.60;;;26.60;64.10;;;;;;4156577;28;20067;-59
2022/01/21 09:00:01;;;;;;;6.68;1.40;;;26.60;64.30;;;;;;4156063;28;20178;-59
2022/01/21 09:02:25;;;;;;;4.85;1.35;;;26.60;64.30;;;;;;4156928;28;20037;-58
2022/01/21 09:04:48;;;;;;;8.93;1.75;;;26.60;64.40;;;;;;4151864;28;20338;-59
2022/01/21 09:07:11;;;;;;;4.22;1.30;;;26.60;64.40;;;;;;4158093;28;20041;-57
2022/01/21 09:09:34;;;;;;;4.15;1.50;;;26.60;64.50;;;;;;4156780;28;20473;-57
2022/01/21 09:12:01;;;;;;;4.45;1.40;;;26.60;64.40;;;;;;4158581;28;20598;-58
2022/01/21 09:14:23;;;;;;;4.63;1.17;;;26.60;64.40;;;;;;4159598;28;20056;-58
2022/01/21 09:16:46;;;;;;;8.38;1.50;;;26.60;64.50;;;;;;4153779;28;20150;-59
2022/01/21 09:19:09;;;;;;;6.40;1.52;;;26.60;64.50;;;;;;4156897;28;20045;-59
2022/01/21 09:21:35;;;;;;;6.15;1.75;;;26.60;65.20;;;;;;4156404;28;20720;-58
2022/01/21 09:23:58;;;;;;;6.20;1.40;;;26.60;64.50;;;;;;4157752;28;20041;-59
2022/01/21 09:26:22;;;;;;;23.77;1.90;;;26.60;64.40;;;;;;4158952;28;20144;-59
2022/01/21 09:28:46;;;;;;;8.35;1.80;;;26.60;64.50;;;;;;4153280;28;20067;-59
2022/01/21 09:31:08;;;;;;;;;;;26.60;64.50;;;;;;4152185;28;20037;-58
2022/01/21 09:33:31;;;;;;;7.53;1.80;;;26.60;64.30;;;;;;4156264;28;19982;-57
2022/01/21 09:35:54;;;;;;;13.82;2.35;;;26.60;64.40;;;;;;4155170;28;20080;-59
2022/01/21 09:38:20;;;;;;;3.08;1.42;;;26.60;64.40;;;;;;4149047;28;20744;-58
2022/01/21 09:40:49;;;;;;;13.60;2.60;;;26.60;64.50;;;;;;4152364;28;20119;-58
2022/01/21 09:43:13;;;;;;;6.70;1.33;;;26.60;64.50;;;;;;4154912;28;20114;-59
2022/01/21 09:45:37;;;;;;;7.47;1.90;;;26.60;64.50;;;;;;4155134;28;20144;-58
2022/01/21 09:48:04;;;;;;;5.10;1.50;;;26.60;64.50;;;;;;4157620;28;20660;-59
2022/01/21 09:50:27;;;;;;;5.72;1.70;;;26.60;64.60;;;;;;4156852;28;20190;-58
2022/01/21 09:52:53;;;;;;;6.25;1.80;;;26.60;64.50;;;;;;4154179;28;20406;-59
2022/01/21 09:55:20;;;;;;;3.80;1.35;;;26.60;64.50;;;;;;4153249;28;20519;-60
2022/01/21 09:57:47;;;;;;;8.35;2.00;;;26.60;64.50;;;;;;4138885;28;20037;-59
2022/01/21 10:00:10;;;;;;;4.68;1.70;;;26.60;64.60;;;;;;4135126;28;20121;-57
2022/01/21 10:02:33;;;;;;;5.93;1.52;;;26.60;64.50;;;;;;4131065;28;20041;-58
2022/01/21 10:04:59;;;;;;;13.05;2.08;;;26.60;64.50;;;;;;4131986;28;20037;-56
2022/01/21 10:07:22;;;;;;;6.80;1.63;;;26.60;64.70;;;;;;4135904;28;20068;-57
2022/01/21 10:09:47;;;;;;;7.15;1.95;;;26.60;64.80;;;;;;4137077;28;20061;-53
2022/01/21 10:12:10;;;;;;;3.28;1.25;;;26.60;64.70;;;;;;4136652;28;20029;-53
2022/01/21 10:14:33;;;;;;;3.38;1.65;;;26.60;64.70;;;;;;4137430;28;20054;-58
2022/01/21 10:16:57;;;;;;;2.97;1.10;;;26.60;64.70;;;;;;4127086;28;20046;-56
2022/01/21 10:19:25;;;;;;;7.80;1.52;;;26.60;64.70;;;;;;4132899;28;21040;-56
2022/01/21 10:21:56;;;;;;;4.28;1.50;;;26.60;64.70;;;;;;4136926;28;20037;-57
2022/01/21 10:24:19;;;;;;;3.67;1.15;;;26.60;64.60;;;;;;4140103;28;20108;-57
2022/01/21 10:26:51;;;;;;;2.90;1.30;;;26.60;64.60;;;;;;4136881;28;20765;-58
2022/01/21 10:29:14;;;;;;;3.38;1.38;;;26.60;64.30;;;;;;4119510;28;20031;-59
2022/01/21 10:31:55;;;;;;;4.25;1.70;;;26.60;64.40;;;;;;4138811;28;20054;-59
2022/01/21 10:34:25;;;;;;;4.18;1.63;;;26.60;64.40;;;;;;4134282;28;20049;-58
2022/01/21 10:36:54;;;;;;;4.00;1.50;;;26.60;64.50;;;;;;4139957;28;20113;-56
2022/01/21 10:39:29;;;;;;;5.15;1.90;;;26.60;64.00;;;;;;4129628;28;20046;-58
2022/01/21 10:41:52;;;;;;;5.43;1.65;;;26.60;64.00;;;;;;4132182;28;20127;-55
2022/01/21 10:44:17;;;;;;;7.35;1.50;;;26.50;64.00;;;;;;4137399;28;20041;-52
2022/01/21 10:46:42;;;;;;;5.28;1.60;;;26.50;64.20;;;;;;4147909;28;20037;-50
2022/01/21 10:49:08;;;;;;;3.72;1.77;;;26.50;64.40;;;;;;4142596;28;20108;-53
2022/01/21 10:51:37;;;;;;;2.88;1.52;;;26.50;64.40;;;;;;4139084;28;20526;-53
2022/01/21 10:54:22;;;;;;;4.20;1.90;;;26.50;64.60;;;;;;4123699;28;20506;-52
2022/01/21 10:57:17;;;;;;;4.97;1.63;;;26.50;64.60;;;;;;4143248;28;20095;-53
2022/01/21 11:00:03;;;;;;;2.80;1.38;;;26.50;64.60;;;;;;4154916;28;20159;-54
2022/01/21 11:02:55;;;;;;;2.88;1.15;;;26.50;64.60;;;;;;4156641;28;20128;-56
2022/01/21 11:05:37;;;;;;;6.70;1.77;;;26.50;64.50;;;;;;4153729;28;20118;-49
2022/01/21 11:08:05;;;;;;;13.77;2.10;;;26.50;64.50;;;;;;4134486;28;20140;-55
2022/01/21 11:10:39;;;;;;;5.97;1.52;;;26.50;64.70;;;;;;4153784;28;20125;-57
2022/01/21 11:13:23;;;;;;;5.82;1.55;;;26.50;64.50;;;;;;4160823;28;20100;-58
2022/01/21 11:16:11;;;;;;;3.70;1.90;;;26.50;64.40;;;;;;4162412;28;20051;-58
2022/01/21 11:18:47;;;;;;;2.80;1.27;;;26.50;64.50;;;;;;4158056;28;20501;-57
2022/01/21 11:21:10;;;;;;;3.60;1.38;;;26.40;64.40;;;;;;4161329;28;20039;-59
2022/01/21 11:23:34;;;;;;;11.10;1.88;;;26.40;64.40;;;;;;4163416;28;20040;-57
2022/01/21 11:26:08;;;;;;;4.95;1.70;;;26.40;64.50;;;;;;4163615;28;20082;-57
2022/01/21 11:28:42;;;;;;;5.97;1.60;;;26.40;64.50;;;;;;4161232;28;20175;-58
2022/01/21 11:31:06;;;;;;;4.32;1.58;;;26.40;64.40;;;;;;4163767;28;20112;-58
2022/01/21 11:33:29;;;;;;;2.70;1.67;;;26.40;64.40;;;;;;4162865;28;20487;-58
2022/01/21 11:35:52;;;;;;;5.53;2.15;;;26.40;64.30;;;;;;4164426;28;20053;-58
2022/01/21 11:38:18;;;;;;;2.92;1.42;;;26.40;64.30;;;;;;4155065;28;20088;-60
2022/01/21 11:40:42;;;;;;;3.47;1.95;;;26.30;64.30;;;;;;4136523;28;20033;-58
2022/01/21 11:43:06;;;;;;;2.65;1.27;;;26.40;64.40;;;;;;4158445;28;20057;-58
2022/01/21 11:48:49;;;;;;;2.92;1.52;;;26.30;64.30;;;;;;4154103;28;20068;-56
2022/01/21 11:50:34;;;;;;;3.35;1.40;;;26.30;64.10;;;;;;4155503;28;20044;-57
2022/01/21 11:52:58;;;;;;;5.60;2.03;;;26.30;64.20;;;;;;4160812;28;20056;-59
2022/01/21 11:55:32;;;;;;;;;;;26.30;64.20;;;;;;4158635;28;20051;-57
2022/01/21 11:58:18;;;;;;;5.07;1.80;;;26.30;64.10;;;;;;4155738;28;19908;-58
2022/01/21 12:00:41;;;;;;;8.52;2.00;;;26.30;64.10;;;;;;4161074;28;20313;-58
2022/01/21 12:03:03;;;;;;;5.82;1.58;;;26.20;64.00;;;;;;4158099;28;20052;-57
2022/01/21 12:05:30;;;;;;;3.95;1.38;;;26.20;64.00;;;;;;4157526;28;20099;-58
2022/01/21 12:07:53;;;;;;;4.67;1.73;;;26.20;64.00;;;;;;4156032;28;20620;-57
2022/01/21 12:10:15;;;;;;;5.57;1.42;;;26.20;64.00;;;;;;4148246;28;20037;-59
2022/01/21 12:12:55;;;;;;;3.63;1.13;;;26.20;64.10;;;;;;4156730;28;20041;-59
2022/01/21 12:15:36;;;;;;;3.15;1.00;;;26.20;64.00;;;;;;4156665;28;20057;-58
2022/01/21 12:21:01;;;;;;;3.65;1.15;;;26.20;63.90;;;;;;4149794;28;20156;-61
2022/01/21 12:23:25;;;;;;;3.28;1.20;;;26.20;64.00;;;;;;4152280;28;20044;-59
2022/01/21 12:26:09;;;;;;;4.78;1.27;;;26.10;63.80;;;;;;4164826;28;20132;-59
2022/01/21 23:10:00;;;;;;;2.83;1.77;;;24.00;64.90;;;;;;4157906;22;20062;-79
2022/01/21 23:12:22;;;;;;;2.28;1.27;;;24.10;64.90;;;;;;4136263;28;20036;-81
2022/01/21 23:14:45;;;;;;;4.40;1.67;;;24.10;64.80;;;;;;4157619;28;20037;-80
2022/01/21 23:17:07;;;;;;;3.15;1.33;;;24.10;64.80;;;;;;4144033;28;20105;-76
2022/01/21 23:19:30;;;;;;;3.75;1.52;;;24.10;64.70;;;;;;4151919;28;20057;-80
2022/01/21 23:21:55;;;;;;;4.88;1.55;;;24.10;64.60;;;;;;4152029;28;20477;-77
2022/01/21 23:24:19;;;;;;;6.57;1.60;;;24.10;64.30;;;;;;4152019;28;20040;-78
2022/01/21 23:26:43;;;;;;;6.72;1.45;;;24.20;63.90;;;;;;4154681;28;20052;-77
2022/01/21 23:31:31;;;;;;;4.50;1.30;;;24.10;63.00;;;;;;4151460;28;20044;-81
2022/01/21 23:33:57;;;;;;;3.78;1.23;;;24.20;63.50;;;;;;4152782;28;20030;-77
2022/01/21 23:36:29;;;;;;;4.05;1.35;;;24.10;63.00;;;;;;4153556;28;20073;-84
2022/01/21 23:39:10;;;;;;;4.72;1.40;;;24.10;62.80;;;;;;4153596;28;20500;-77
2022/01/21 23:41:41;;;;;;;2.88;1.10;;;24.10;62.70;;;;;;4152160;28;20355;-80
2022/01/21 23:44:04;;;;;;;4.05;1.10;;;24.10;62.60;;;;;;4149548;28;20599;-79
2022/01/21 23:46:32;;;;;;;2.70;0.88;;;24.10;62.60;;;;;;4150135;28;20257;-80
2022/01/21 23:49:04;;;;;;;3.55;1.00;;;24.10;63.30;;;;;;4159909;28;20616;-86
2022/01/21 23:51:27;;;;;;;4.10;1.20;;;24.10;62.80;;;;;;4161308;28;20048;-78
2022/01/21 23:53:50;;;;;;;4.70;1.10;;;24.10;62.90;;;;;;4174127;28;20336;-80
2022/01/21 23:56:12;;;;;;;3.63;1.30;;;24.10;62.80;;;;;;4155996;28;20418;-77
2022/01/21 23:58:36;;;;;;;2.72;1.05;;;24.10;62.60;;;;;;4160563;28;20804;-76
